Accueil
METAR-TAF:

METAR-TAF

Aéroports :

Trévise, Italie

latitude: 45-41N, longitude: 012-06E, altitude: 45 m

Observation

Le bulletin a été fait il y a 1 heure et 18 minutes, à 21:55 UTC
Vent calme
Température 23°C
Humidité 89%
Pression 1013 hPa
Visibilité 10 km ou plus
pas de nuages en-dessous de 1500 mètres et pas de cumulonimbus.

METAR: LIPS 032155Z 00000KT CAVOK 23/21 Q1013 RMK BKN BKN200 VIS MIN 9999 WIND THR26 00000KT WIND THR08 00000KT BLK BLU

Heure: 01:13 (23:13 UTC)

Prévision

Le bulletin a été fait il y a 3 heures et 13 minutes, à 20:00 UTC
Prévision valable du 03 à 21 UTC au 04 à 06 UTC
Vent 3 kt de nord/nord-est
Visibilité 10 km ou plus
Quelques nuages à une hauteur de 3000 ft
Nuages épars à une hauteur de 6000 ft
Probabilité 30% :
Temporairement
du 03 à 21 UTC au 04 à 01 UTC
Visibilité: 5000 m
averses de pluie

TAF: LIPS 032000Z 0321/0406 03003KT 9999 FEW030 SCT060 PROB30 TEMPO 0321/0401 5000 SHRA

Observations et prévisions météorologiques de plus de 4000 aéroports (messages METAR et TAF).

Les stations disponibles sont représentées par des disques jaunes et rouges sur la carte.

Passer la souris dessus pour voir le nom de la station.

Cliquer dessus pour voir les observations et prévisions météorologiques.

Pour changer de carte: cliquez sur les boutons verts avec une croix noire pour zoomer, sur le bouton vert avec un tiret pour effectuer un zoom arrière, ou sur les flèches vertes pour les cartes adjacentes.


METAR-TAF: